sensor_id;sensor_type;location;lat;lon;timestamp;temperature;humidity
12688;DHT22;6408;59.388;17.798;2023-04-25T00:01:16;4.50;99.90
12688;DHT22;6408;59.388;17.798;2023-04-25T00:03:46;4.50;99.90
12688;DHT22;6408;59.388;17.798;2023-04-25T00:06:14;4.50;99.90
12688;DHT22;6408;59.388;17.798;2023-04-25T00:08:43;4.50;99.90
12688;DHT22;6408;59.388;17.798;2023-04-25T00:11:10;4.50;99.90
12688;DHT22;6408;59.388;17.798;2023-04-25T00:13:38;4.50;99.90
12688;DHT22;6408;59.388;17.798;2023-04-25T00:16:07;4.50;99.90
12688;DHT22;6408;59.388;17.798;2023-04-25T00:18:34;4.50;99.90
12688;DHT22;6408;59.388;17.798;2023-04-25T00:21:03;4.50;99.90
12688;DHT22;6408;59.388;17.798;2023-04-25T00:23:31;4.40;99.90
12688;DHT22;6408;59.388;17.798;2023-04-25T00:26:01;4.40;99.90
12688;DHT22;6408;59.388;17.798;2023-04-25T00:28:29;4.40;99.90
12688;DHT22;6408;59.388;17.798;2023-04-25T00:30:56;4.40;99.90
12688;DHT22;6408;59.388;17.798;2023-04-25T00:33:24;4.40;99.90
12688;DHT22;6408;59.388;17.798;2023-04-25T00:35:51;4.40;99.90
12688;DHT22;6408;59.388;17.798;2023-04-25T00:38:20;4.40;99.90
12688;DHT22;6408;59.388;17.798;2023-04-25T00:40:48;4.40;99.90
12688;DHT22;6408;59.388;17.798;2023-04-25T00:43:15;4.40;99.90
12688;DHT22;6408;59.388;17.798;2023-04-25T00:45:43;4.40;99.90
12688;DHT22;6408;59.388;17.798;2023-04-25T00:48:14;4.30;99.90
12688;DHT22;6408;59.388;17.798;2023-04-25T00:50:43;4.30;99.90
12688;DHT22;6408;59.388;17.798;2023-04-25T00:53:13;4.30;99.90
12688;DHT22;6408;59.388;17.798;2023-04-25T00:55:43;4.30;99.90
12688;DHT22;6408;59.388;17.798;2023-04-25T00:58:10;4.30;99.90
12688;DHT22;6408;59.388;17.798;2023-04-25T01:00:38;4.20;99.90
12688;DHT22;6408;59.388;17.798;2023-04-25T01:03:06;4.30;99.90
12688;DHT22;6408;59.388;17.798;2023-04-25T01:05:35;4.30;99.90
12688;DHT22;6408;59.388;17.798;2023-04-25T01:08:03;4.30;99.90
12688;DHT22;6408;59.388;17.798;2023-04-25T01:10:31;4.20;99.90
12688;DHT22;6408;59.388;17.798;2023-04-25T01:13:00;4.20;99.90
12688;DHT22;6408;59.388;17.798;2023-04-25T01:15:28;4.20;99.90
12688;DHT22;6408;59.388;17.798;2023-04-25T01:17:56;4.20;99.90
12688;DHT22;6408;59.388;17.798;2023-04-25T01:20:24;4.20;99.90
12688;DHT22;6408;59.388;17.798;2023-04-25T01:22:54;4.20;99.90
12688;DHT22;6408;59.388;17.798;2023-04-25T01:25:22;4.20;99.90
12688;DHT22;6408;59.388;17.798;2023-04-25T01:27:50;4.10;99.90
12688;DHT22;6408;59.388;17.798;2023-04-25T01:30:18;4.00;99.90
12688;DHT22;6408;59.388;17.798;2023-04-25T01:32:46;4.00;99.90
12688;DHT22;6408;59.388;17.798;2023-04-25T01:35:14;4.00;99.90
12688;DHT22;6408;59.388;17.798;2023-04-25T01:37:42;4.00;99.90
12688;DHT22;6408;59.388;17.798;2023-04-25T01:40:12;4.00;99.90
12688;DHT22;6408;59.388;17.798;2023-04-25T01:42:42;3.90;99.90
12688;DHT22;6408;59.388;17.798;2023-04-25T01:45:10;3.80;99.90
12688;DHT22;6408;59.388;17.798;2023-04-25T01:47:38;3.90;99.90
12688;DHT22;6408;59.388;17.798;2023-04-25T01:50:08;3.90;99.90
12688;DHT22;6408;59.388;17.798;2023-04-25T01:52:36;3.90;99.90
12688;DHT22;6408;59.388;17.798;2023-04-25T01:55:05;3.90;99.90
12688;DHT22;6408;59.388;17.798;2023-04-25T01:57:34;3.90;99.90
12688;DHT22;6408;59.388;17.798;2023-04-25T02:00:04;3.90;99.90
12688;DHT22;6408;59.388;17.798;2023-04-25T02:02:32;3.90;99.90
12688;DHT22;6408;59.388;17.798;2023-04-25T02:05:00;4.00;99.90
12688;DHT22;6408;59.388;17.798;2023-04-25T02:07:27;3.90;99.90
12688;DHT22;6408;59.388;17.798;2023-04-25T02:09:54;3.90;99.90
12688;DHT22;6408;59.388;17.798;2023-04-25T02:12:22;3.90;99.90
12688;DHT22;6408;59.388;17.798;2023-04-25T02:14:51;3.90;99.90
12688;DHT22;6408;59.388;17.798;2023-04-25T02:17:18;3.80;99.90
12688;DHT22;6408;59.388;17.798;2023-04-25T02:19:47;3.80;99.90
12688;DHT22;6408;59.388;17.798;2023-04-25T02:22:15;3.80;99.90
12688;DHT22;6408;59.388;17.798;2023-04-25T02:24:43;3.70;99.90
12688;DHT22;6408;59.388;17.798;2023-04-25T02:27:10;3.70;99.90
12688;DHT22;6408;59.388;17.798;2023-04-25T02:29:38;3.70;99.90
12688;DHT22;6408;59.388;17.798;2023-04-25T02:32:07;3.70;99.90
12688;DHT22;6408;59.388;17.798;2023-04-25T02:34:34;3.70;99.90
12688;DHT22;6408;59.388;17.798;2023-04-25T02:37:02;3.70;99.90
12688;DHT22;6408;59.388;17.798;2023-04-25T02:39:30;3.70;99.90
12688;DHT22;6408;59.388;17.798;2023-04-25T02:41:57;3.60;99.90
12688;DHT22;6408;59.388;17.798;2023-04-25T02:44:25;3.60;99.90
12688;DHT22;6408;59.388;17.798;2023-04-25T02:46:52;3.60;99.90
12688;DHT22;6408;59.388;17.798;2023-04-25T02:49:21;3.60;99.90
12688;DHT22;6408;59.388;17.798;2023-04-25T02:51:48;3.60;99.90
12688;DHT22;6408;59.388;17.798;2023-04-25T02:54:16;3.60;99.90
12688;DHT22;6408;59.388;17.798;2023-04-25T02:56:43;3.60;99.90
12688;DHT22;6408;59.388;17.798;2023-04-25T02:59:11;3.50;99.90
12688;DHT22;6408;59.388;17.798;2023-04-25T03:01:38;3.50;99.90
12688;DHT22;6408;59.388;17.798;2023-04-25T03:04:05;3.50;99.90
12688;DHT22;6408;59.388;17.798;2023-04-25T03:06:34;3.40;99.90
12688;DHT22;6408;59.388;17.798;2023-04-25T03:09:02;3.40;99.90
12688;DHT22;6408;59.388;17.798;2023-04-25T03:11:30;3.40;99.90
12688;DHT22;6408;59.388;17.798;2023-04-25T03:13:57;3.50;99.90
12688;DHT22;6408;59.388;17.798;2023-04-25T03:16:25;3.40;99.90
12688;DHT22;6408;59.388;17.798;2023-04-25T03:18:53;3.40;99.90
12688;DHT22;6408;59.388;17.798;2023-04-25T03:21:20;3.50;99.90
12688;DHT22;6408;59.388;17.798;2023-04-25T03:23:49;3.50;99.90
12688;DHT22;6408;59.388;17.798;2023-04-25T03:26:17;3.50;99.90
12688;DHT22;6408;59.388;17.798;2023-04-25T03:28:44;3.50;99.90
12688;DHT22;6408;59.388;17.798;2023-04-25T03:31:11;3.50;99.90
12688;DHT22;6408;59.388;17.798;2023-04-25T03:33:39;3.50;99.90
12688;DHT22;6408;59.388;17.798;2023-04-25T03:36:07;3.50;99.90
12688;DHT22;6408;59.388;17.798;2023-04-25T03:38:35;3.50;99.90
12688;DHT22;6408;59.388;17.798;2023-04-25T03:41:05;3.60;99.90
12688;DHT22;6408;59.388;17.798;2023-04-25T03:43:32;3.60;99.90
12688;DHT22;6408;59.388;17.798;2023-04-25T03:46:00;3.60;99.90
12688;DHT22;6408;59.388;17.798;2023-04-25T03:48:27;3.70;99.90
12688;DHT22;6408;59.388;17.798;2023-04-25T03:50:55;3.70;99.90
12688;DHT22;6408;59.388;17.798;2023-04-25T03:53:22;3.70;99.90
12688;DHT22;6408;59.388;17.798;2023-04-25T03:55:50;3.70;99.90
12688;DHT22;6408;59.388;17.798;2023-04-25T03:58:20;3.70;99.90
12688;DHT22;6408;59.388;17.798;2023-04-25T04:00:48;3.70;99.90
12688;DHT22;6408;59.388;17.798;2023-04-25T04:03:16;3.70;99.90
12688;DHT22;6408;59.388;17.798;2023-04-25T04:05:43;3.70;99.90
12688;DHT22;6408;59.388;17.798;2023-04-25T04:08:12;3.70;99.90
12688;DHT22;6408;59.388;17.798;2023-04-25T04:10:39;3.70;99.90
12688;DHT22;6408;59.388;17.798;2023-04-25T04:13:07;3.70;99.90
12688;DHT22;6408;59.388;17.798;2023-04-25T04:15:36;3.80;99.90
12688;DHT22;6408;59.388;17.798;2023-04-25T04:18:03;3.70;99.90
12688;DHT22;6408;59.388;17.798;2023-04-25T04:20:31;3.70;99.90
12688;DHT22;6408;59.388;17.798;2023-04-25T04:22:59;3.70;99.90
12688;DHT22;6408;59.388;17.798;2023-04-25T04:25:26;3.70;99.90
12688;DHT22;6408;59.388;17.798;2023-04-25T04:27:54;3.70;99.90
12688;DHT22;6408;59.388;17.798;2023-04-25T04:30:22;3.70;99.90
12688;DHT22;6408;59.388;17.798;2023-04-25T04:32:52;3.70;99.90
12688;DHT22;6408;59.388;17.798;2023-04-25T04:35:21;3.80;99.90
12688;DHT22;6408;59.388;17.798;2023-04-25T04:37:49;3.80;99.90
12688;DHT22;6408;59.388;17.798;2023-04-25T04:40:16;3.80;99.90
12688;DHT22;6408;59.388;17.798;2023-04-25T04:42:44;3.80;99.90
12688;DHT22;6408;59.388;17.798;2023-04-25T04:45:12;3.70;99.90
12688;DHT22;6408;59.388;17.798;2023-04-25T04:47:40;3.80;99.90
12688;DHT22;6408;59.388;17.798;2023-04-25T04:50:10;3.80;99.90
12688;DHT22;6408;59.388;17.798;2023-04-25T04:52:38;3.90;99.90
12688;DHT22;6408;59.388;17.798;2023-04-25T04:55:06;3.90;99.90
12688;DHT22;6408;59.388;17.798;2023-04-25T04:57:34;3.90;99.90
12688;DHT22;6408;59.388;17.798;2023-04-25T05:00:03;3.90;99.90
12688;DHT22;6408;59.388;17.798;2023-04-25T05:02:36;3.90;99.90
12688;DHT22;6408;59.388;17.798;2023-04-25T05:05:04;3.90;99.90
12688;DHT22;6408;59.388;17.798;2023-04-25T05:07:33;3.90;99.90
12688;DHT22;6408;59.388;17.798;2023-04-25T05:10:00;3.80;99.90
12688;DHT22;6408;59.388;17.798;2023-04-25T05:12:28;3.90;99.90
12688;DHT22;6408;59.388;17.798;2023-04-25T05:14:56;3.90;99.90
12688;DHT22;6408;59.388;17.798;2023-04-25T05:17:23;3.90;99.90
12688;DHT22;6408;59.388;17.798;2023-04-25T05:19:52;3.90;99.90
12688;DHT22;6408;59.388;17.798;2023-04-25T05:22:20;3.90;99.90
12688;DHT22;6408;59.388;17.798;2023-04-25T05:24:49;3.90;99.90
12688;DHT22;6408;59.388;17.798;2023-04-25T05:27:17;3.90;99.90
12688;DHT22;6408;59.388;17.798;2023-04-25T05:29:45;3.90;99.90
12688;DHT22;6408;59.388;17.798;2023-04-25T05:32:12;3.90;99.90
12688;DHT22;6408;59.388;17.798;2023-04-25T05:34:40;4.00;99.90
12688;DHT22;6408;59.388;17.798;2023-04-25T05:37:07;4.00;99.90
12688;DHT22;6408;59.388;17.798;2023-04-25T05:39:35;4.00;99.90
12688;DHT22;6408;59.388;17.798;2023-04-25T05:42:04;4.00;99.90
12688;DHT22;6408;59.388;17.798;2023-04-25T05:44:32;4.00;99.90
12688;DHT22;6408;59.388;17.798;2023-04-25T05:46:59;4.10;99.90
12688;DHT22;6408;59.388;17.798;2023-04-25T05:49:27;4.10;99.90
12688;DHT22;6408;59.388;17.798;2023-04-25T05:51:54;4.10;99.90
12688;DHT22;6408;59.388;17.798;2023-04-25T05:54:22;4.20;99.90
12688;DHT22;6408;59.388;17.798;2023-04-25T05:56:49;4.10;99.90
12688;DHT22;6408;59.388;17.798;2023-04-25T05:59:18;4.20;99.90
12688;DHT22;6408;59.388;17.798;2023-04-25T06:01:46;4.30;99.90
12688;DHT22;6408;59.388;17.798;2023-04-25T06:04:13;4.30;99.90
12688;DHT22;6408;59.388;17.798;2023-04-25T06:06:40;4.30;99.90
12688;DHT22;6408;59.388;17.798;2023-04-25T06:09:08;4.30;99.90
12688;DHT22;6408;59.388;17.798;2023-04-25T06:11:35;4.30;99.90
12688;DHT22;6408;59.388;17.798;2023-04-25T06:14:03;4.40;99.90
12688;DHT22;6408;59.388;17.798;2023-04-25T06:16:32;4.50;99.90
12688;DHT22;6408;59.388;17.798;2023-04-25T06:18:59;4.50;99.90
12688;DHT22;6408;59.388;17.798;2023-04-25T06:21:27;4.50;99.90
12688;DHT22;6408;59.388;17.798;2023-04-25T06:23:54;4.50;99.90
12688;DHT22;6408;59.388;17.798;2023-04-25T06:26:22;4.60;99.90
12688;DHT22;6408;59.388;17.798;2023-04-25T06:28:49;4.50;99.90
12688;DHT22;6408;59.388;17.798;2023-04-25T06:31:17;4.50;99.90
12688;DHT22;6408;59.388;17.798;2023-04-25T06:33:46;4.50;99.90
12688;DHT22;6408;59.388;17.798;2023-04-25T06:36:13;4.50;99.90
12688;DHT22;6408;59.388;17.798;2023-04-25T06:38:41;4.60;99.90
12688;DHT22;6408;59.388;17.798;2023-04-25T06:41:08;4.50;99.90
12688;DHT22;6408;59.388;17.798;2023-04-25T06:43:36;4.50;99.90
12688;DHT22;6408;59.388;17.798;2023-04-25T06:46:03;4.50;99.90
12688;DHT22;6408;59.388;17.798;2023-04-25T06:48:30;4.50;99.90
12688;DHT22;6408;59.388;17.798;2023-04-25T06:51:00;4.50;99.90
12688;DHT22;6408;59.388;17.798;2023-04-25T06:53:27;4.50;99.90
12688;DHT22;6408;59.388;17.798;2023-04-25T06:55:55;4.60;99.90
12688;DHT22;6408;59.388;17.798;2023-04-25T06:58:22;4.60;99.90
12688;DHT22;6408;59.388;17.798;2023-04-25T07:00:51;4.60;99.90
12688;DHT22;6408;59.388;17.798;2023-04-25T07:03:19;4.70;99.90
12688;DHT22;6408;59.388;17.798;2023-04-25T07:05:47;4.80;99.90
12688;DHT22;6408;59.388;17.798;2023-04-25T07:08:16;4.80;99.90
12688;DHT22;6408;59.388;17.798;2023-04-25T07:10:43;4.90;99.90
12688;DHT22;6408;59.388;17.798;2023-04-25T07:13:11;5.00;99.90
12688;DHT22;6408;59.388;17.798;2023-04-25T07:15:39;5.00;99.90
12688;DHT22;6408;59.388;17.798;2023-04-25T07:18:07;5.10;99.90
12688;DHT22;6408;59.388;17.798;2023-04-25T07:20:35;5.10;99.90
12688;DHT22;6408;59.388;17.798;2023-04-25T07:23:02;5.00;99.90
12688;DHT22;6408;59.388;17.798;2023-04-25T07:25:32;5.00;99.90
12688;DHT22;6408;59.388;17.798;2023-04-25T07:27:59;5.00;99.90
12688;DHT22;6408;59.388;17.798;2023-04-25T07:30:26;5.00;99.90
12688;DHT22;6408;59.388;17.798;2023-04-25T07:32:54;5.10;99.90
12688;DHT22;6408;59.388;17.798;2023-04-25T07:35:21;5.10;99.90
12688;DHT22;6408;59.388;17.798;2023-04-25T07:37:49;5.10;99.90
12688;DHT22;6408;59.388;17.798;2023-04-25T07:40:17;5.20;99.90
12688;DHT22;6408;59.388;17.798;2023-04-25T07:42:46;5.20;99.90
12688;DHT22;6408;59.388;17.798;2023-04-25T07:45:14;5.20;99.90
12688;DHT22;6408;59.388;17.798;2023-04-25T07:47:41;5.20;99.90
12688;DHT22;6408;59.388;17.798;2023-04-25T07:50:09;5.20;99.90
12688;DHT22;6408;59.388;17.798;2023-04-25T07:52:37;5.30;99.90
12688;DHT22;6408;59.388;17.798;2023-04-25T07:55:05;5.30;99.90
12688;DHT22;6408;59.388;17.798;2023-04-25T07:57:32;5.30;99.90
12688;DHT22;6408;59.388;17.798;2023-04-25T08:00:01;5.30;99.90
12688;DHT22;6408;59.388;17.798;2023-04-25T08:02:28;5.40;99.90
12688;DHT22;6408;59.388;17.798;2023-04-25T08:04:56;5.50;99.90
12688;DHT22;6408;59.388;17.798;2023-04-25T08:07:23;5.50;99.90
12688;DHT22;6408;59.388;17.798;2023-04-25T08:09:51;5.60;99.90
12688;DHT22;6408;59.388;17.798;2023-04-25T08:12:18;5.60;99.90
12688;DHT22;6408;59.388;17.798;2023-04-25T08:14:46;5.70;99.90
12688;DHT22;6408;59.388;17.798;2023-04-25T08:17:15;5.80;99.90
12688;DHT22;6408;59.388;17.798;2023-04-25T08:19:43;5.90;99.90
12688;DHT22;6408;59.388;17.798;2023-04-25T08:22:10;5.90;99.90
12688;DHT22;6408;59.388;17.798;2023-04-25T08:24:38;6.00;99.90
12688;DHT22;6408;59.388;17.798;2023-04-25T08:27:05;6.10;99.90
12688;DHT22;6408;59.388;17.798;2023-04-25T08:29:34;6.10;99.90
12688;DHT22;6408;59.388;17.798;2023-04-25T08:32:01;6.20;99.90
12688;DHT22;6408;59.388;17.798;2023-04-25T08:34:30;6.20;99.90
12688;DHT22;6408;59.388;17.798;2023-04-25T08:36:58;6.20;99.90
12688;DHT22;6408;59.388;17.798;2023-04-25T08:39:26;6.20;99.90
12688;DHT22;6408;59.388;17.798;2023-04-25T08:41:53;6.30;99.90
12688;DHT22;6408;59.388;17.798;2023-04-25T08:44:21;6.40;99.90
12688;DHT22;6408;59.388;17.798;2023-04-25T08:46:49;6.40;99.90
12688;DHT22;6408;59.388;17.798;2023-04-25T08:49:18;6.40;99.90
12688;DHT22;6408;59.388;17.798;2023-04-25T08:51:47;6.50;99.90
12688;DHT22;6408;59.388;17.798;2023-04-25T08:54:17;6.70;99.90
12688;DHT22;6408;59.388;17.798;2023-04-25T08:56:47;6.70;99.90
12688;DHT22;6408;59.388;17.798;2023-04-25T08:59:15;6.70;99.90
12688;DHT22;6408;59.388;17.798;2023-04-25T09:01:43;6.70;99.90
12688;DHT22;6408;59.388;17.798;2023-04-25T09:04:12;6.80;99.90
12688;DHT22;6408;59.388;17.798;2023-04-25T09:06:39;6.80;99.90
12688;DHT22;6408;59.388;17.798;2023-04-25T09:09:09;6.90;99.90
12688;DHT22;6408;59.388;17.798;2023-04-25T09:11:37;7.00;99.90
12688;DHT22;6408;59.388;17.798;2023-04-25T09:14:13;7.00;99.90
12688;DHT22;6408;59.388;17.798;2023-04-25T09:17:02;7.00;99.90
12688;DHT22;6408;59.388;17.798;2023-04-25T09:19:31;7.00;99.90
12688;DHT22;6408;59.388;17.798;2023-04-25T09:22:02;7.10;99.90
12688;DHT22;6408;59.388;17.798;2023-04-25T09:24:33;7.20;99.90
12688;DHT22;6408;59.388;17.798;2023-04-25T09:27:04;7.30;99.90
12688;DHT22;6408;59.388;17.798;2023-04-25T09:29:33;7.40;99.90
12688;DHT22;6408;59.388;17.798;2023-04-25T09:32:16;7.60;99.90
12688;DHT22;6408;59.388;17.798;2023-04-25T09:34:46;7.70;99.90
12688;DHT22;6408;59.388;17.798;2023-04-25T09:37:19;7.80;99.90
12688;DHT22;6408;59.388;17.798;2023-04-25T09:39:50;7.70;99.90
12688;DHT22;6408;59.388;17.798;2023-04-25T09:42:22;7.70;99.90
12688;DHT22;6408;59.388;17.798;2023-04-25T09:44:52;7.90;99.90
12688;DHT22;6408;59.388;17.798;2023-04-25T09:47:19;7.80;99.90
12688;DHT22;6408;59.388;17.798;2023-04-25T09:49:49;7.90;99.90
12688;DHT22;6408;59.388;17.798;2023-04-25T09:52:19;8.00;99.90
12688;DHT22;6408;59.388;17.798;2023-04-25T09:54:49;8.00;99.90
12688;DHT22;6408;59.388;17.798;2023-04-25T09:57:17;7.90;99.90
12688;DHT22;6408;59.388;17.798;2023-04-25T09:59:46;7.90;99.90
12688;DHT22;6408;59.388;17.798;2023-04-25T10:02:15;8.00;99.90
12688;DHT22;6408;59.388;17.798;2023-04-25T10:04:48;8.00;99.90
12688;DHT22;6408;59.388;17.798;2023-04-25T10:07:18;8.00;99.90
12688;DHT22;6408;59.388;17.798;2023-04-25T10:09:49;8.00;99.90
12688;DHT22;6408;59.388;17.798;2023-04-25T10:12:19;8.10;99.90
12688;DHT22;6408;59.388;17.798;2023-04-25T10:14:47;8.20;99.90
12688;DHT22;6408;59.388;17.798;2023-04-25T10:17:15;8.30;99.90
12688;DHT22;6408;59.388;17.798;2023-04-25T10:19:42;8.40;99.90
12688;DHT22;6408;59.388;17.798;2023-04-25T10:22:14;8.70;99.90
12688;DHT22;6408;59.388;17.798;2023-04-25T10:24:45;8.70;99.90
12688;DHT22;6408;59.388;17.798;2023-04-25T10:27:14;8.70;99.90
12688;DHT22;6408;59.388;17.798;2023-04-25T10:29:42;8.50;99.90
12688;DHT22;6408;59.388;17.798;2023-04-25T10:32:10;8.50;99.90
12688;DHT22;6408;59.388;17.798;2023-04-25T10:34:39;8.40;99.90
12688;DHT22;6408;59.388;17.798;2023-04-25T10:37:09;8.50;99.90
12688;DHT22;6408;59.388;17.798;2023-04-25T10:39:38;8.60;99.90
12688;DHT22;6408;59.388;17.798;2023-04-25T10:42:06;8.60;99.90
12688;DHT22;6408;59.388;17.798;2023-04-25T10:44:37;8.60;99.90
12688;DHT22;6408;59.388;17.798;2023-04-25T10:47:07;8.70;99.90
12688;DHT22;6408;59.388;17.798;2023-04-25T10:49:36;8.70;99.90
12688;DHT22;6408;59.388;17.798;2023-04-25T10:52:12;8.70;99.90
12688;DHT22;6408;59.388;17.798;2023-04-25T10:54:41;8.80;99.90
12688;DHT22;6408;59.388;17.798;2023-04-25T10:57:30;8.80;99.90
12688;DHT22;6408;59.388;17.798;2023-04-25T11:00:05;8.70;99.90
12688;DHT22;6408;59.388;17.798;2023-04-25T11:02:37;8.70;99.90
12688;DHT22;6408;59.388;17.798;2023-04-25T11:05:06;8.80;99.90
12688;DHT22;6408;59.388;17.798;2023-04-25T11:07:44;8.80;99.90
12688;DHT22;6408;59.388;17.798;2023-04-25T11:10:16;9.00;99.90
12688;DHT22;6408;59.388;17.798;2023-04-25T11:12:45;9.10;99.90
12688;DHT22;6408;59.388;17.798;2023-04-25T11:15:15;9.20;99.90
12688;DHT22;6408;59.388;17.798;2023-04-25T11:17:43;9.20;99.90
12688;DHT22;6408;59.388;17.798;2023-04-25T11:20:12;9.20;99.90
12688;DHT22;6408;59.388;17.798;2023-04-25T11:22:41;9.30;99.90
12688;DHT22;6408;59.388;17.798;2023-04-25T11:25:13;9.30;99.90
12688;DHT22;6408;59.388;17.798;2023-04-25T11:27:50;9.30;99.90
12688;DHT22;6408;59.388;17.798;2023-04-25T11:30:21;9.20;99.90
12688;DHT22;6408;59.388;17.798;2023-04-25T11:32:49;9.10;99.90
12688;DHT22;6408;59.388;17.798;2023-04-25T11:35:17;9.10;99.90
12688;DHT22;6408;59.388;17.798;2023-04-25T11:37:45;9.00;99.90
12688;DHT22;6408;59.388;17.798;2023-04-25T11:40:13;8.90;99.90
12688;DHT22;6408;59.388;17.798;2023-04-25T11:42:44;8.80;99.90
12688;DHT22;6408;59.388;17.798;2023-04-25T11:45:13;8.70;99.90
12688;DHT22;6408;59.388;17.798;2023-04-25T11:47:42;8.60;99.90
12688;DHT22;6408;59.388;17.798;2023-04-25T11:50:10;8.50;99.90
12688;DHT22;6408;59.388;17.798;2023-04-25T11:52:41;8.50;99.90
12688;DHT22;6408;59.388;17.798;2023-04-25T11:55:09;8.40;99.90
12688;DHT22;6408;59.388;17.798;2023-04-25T11:57:41;8.40;99.90
12688;DHT22;6408;59.388;17.798;2023-04-25T12:00:10;8.30;99.90
12688;DHT22;6408;59.388;17.798;2023-04-25T12:02:56;8.40;99.90
12688;DHT22;6408;59.388;17.798;2023-04-25T12:05:25;8.40;99.90
12688;DHT22;6408;59.388;17.798;2023-04-25T12:07:52;8.40;99.90
12688;DHT22;6408;59.388;17.798;2023-04-25T12:10:20;8.60;99.90
12688;DHT22;6408;59.388;17.798;2023-04-25T12:12:48;8.60;99.90
12688;DHT22;6408;59.388;17.798;2023-04-25T12:15:17;8.60;99.90
12688;DHT22;6408;59.388;17.798;2023-04-25T12:17:46;8.60;99.90
12688;DHT22;6408;59.388;17.798;2023-04-25T12:20:18;8.60;99.90
12688;DHT22;6408;59.388;17.798;2023-04-25T12:22:49;8.60;99.90
12688;DHT22;6408;59.388;17.798;2023-04-25T12:25:35;8.60;99.90
12688;DHT22;6408;59.388;17.798;2023-04-25T12:28:11;8.70;99.90
12688;DHT22;6408;59.388;17.798;2023-04-25T12:30:58;8.60;99.90
12688;DHT22;6408;59.388;17.798;2023-04-25T12:33:27;8.50;99.90
12688;DHT22;6408;59.388;17.798;2023-04-25T12:35:57;8.50;99.90
12688;DHT22;6408;59.388;17.798;2023-04-25T12:38:25;8.50;99.90
12688;DHT22;6408;59.388;17.798;2023-04-25T12:40:53;8.50;99.90
12688;DHT22;6408;59.388;17.798;2023-04-25T12:43:21;8.60;99.90
12688;DHT22;6408;59.388;17.798;2023-04-25T12:45:49;8.60;99.90
12688;DHT22;6408;59.388;17.798;2023-04-25T12:48:17;8.60;99.90
12688;DHT22;6408;59.388;17.798;2023-04-25T12:50:45;8.70;99.90
12688;DHT22;6408;59.388;17.798;2023-04-25T12:53:16;8.80;99.90
12688;DHT22;6408;59.388;17.798;2023-04-25T12:55:44;8.80;99.90
12688;DHT22;6408;59.388;17.798;2023-04-25T12:58:12;8.90;99.90
12688;DHT22;6408;59.388;17.798;2023-04-25T13:00:40;9.00;99.90
12688;DHT22;6408;59.388;17.798;2023-04-25T13:03:08;8.90;99.90
12688;DHT22;6408;59.388;17.798;2023-04-25T13:05:36;9.00;99.90
12688;DHT22;6408;59.388;17.798;2023-04-25T13:08:04;9.00;99.90
12688;DHT22;6408;59.388;17.798;2023-04-25T13:10:33;9.50;99.90
12688;DHT22;6408;59.388;17.798;2023-04-25T13:13:01;9.70;99.90
12688;DHT22;6408;59.388;17.798;2023-04-25T13:15:29;9.80;99.90
12688;DHT22;6408;59.388;17.798;2023-04-25T13:17:56;9.90;99.90
12688;DHT22;6408;59.388;17.798;2023-04-25T13:20:24;10.10;99.90
12688;DHT22;6408;59.388;17.798;2023-04-25T13:22:51;10.40;99.90
12688;DHT22;6408;59.388;17.798;2023-04-25T13:25:19;10.50;99.90
12688;DHT22;6408;59.388;17.798;2023-04-25T13:27:49;10.50;99.90
12688;DHT22;6408;59.388;17.798;2023-04-25T13:30:16;10.40;99.90
12688;DHT22;6408;59.388;17.798;2023-04-25T13:32:44;10.50;99.90
12688;DHT22;6408;59.388;17.798;2023-04-25T13:35:12;10.60;99.90
12688;DHT22;6408;59.388;17.798;2023-04-25T13:37:40;10.50;99.90
12688;DHT22;6408;59.388;17.798;2023-04-25T13:40:10;10.50;99.90
12688;DHT22;6408;59.388;17.798;2023-04-25T13:42:38;10.30;99.90
12688;DHT22;6408;59.388;17.798;2023-04-25T13:45:10;10.20;99.90
12688;DHT22;6408;59.388;17.798;2023-04-25T13:47:37;10.10;99.90
12688;DHT22;6408;59.388;17.798;2023-04-25T13:50:06;10.00;99.90
12688;DHT22;6408;59.388;17.798;2023-04-25T13:52:34;10.00;99.90
12688;DHT22;6408;59.388;17.798;2023-04-25T13:55:02;10.00;99.90
12688;DHT22;6408;59.388;17.798;2023-04-25T13:57:32;10.00;99.90
12688;DHT22;6408;59.388;17.798;2023-04-25T14:00:00;10.20;99.90
12688;DHT22;6408;59.388;17.798;2023-04-25T14:02:32;10.40;99.90
12688;DHT22;6408;59.388;17.798;2023-04-25T14:04:59;10.60;99.90
12688;DHT22;6408;59.388;17.798;2023-04-25T14:07:27;10.70;99.90
12688;DHT22;6408;59.388;17.798;2023-04-25T14:09:54;10.80;99.90
12688;DHT22;6408;59.388;17.798;2023-04-25T14:12:22;11.00;99.90
12688;DHT22;6408;59.388;17.798;2023-04-25T14:14:50;11.00;99.90
12688;DHT22;6408;59.388;17.798;2023-04-25T14:17:18;11.00;99.90
12688;DHT22;6408;59.388;17.798;2023-04-25T14:19:47;11.00;99.90
12688;DHT22;6408;59.388;17.798;2023-04-25T14:22:15;11.00;99.90
12688;DHT22;6408;59.388;17.798;2023-04-25T14:24:42;11.00;99.90
12688;DHT22;6408;59.388;17.798;2023-04-25T14:27:10;11.10;99.90
12688;DHT22;6408;59.388;17.798;2023-04-25T14:29:37;11.10;99.90
12688;DHT22;6408;59.388;17.798;2023-04-25T14:32:05;11.10;99.90
12688;DHT22;6408;59.388;17.798;2023-04-25T14:34:33;11.00;99.90
12688;DHT22;6408;59.388;17.798;2023-04-25T14:37:02;10.90;99.90
12688;DHT22;6408;59.388;17.798;2023-04-25T14:39:30;10.80;99.90
12688;DHT22;6408;59.388;17.798;2023-04-25T14:41:58;10.80;99.90
12688;DHT22;6408;59.388;17.798;2023-04-25T14:44:25;10.80;99.90
12688;DHT22;6408;59.388;17.798;2023-04-25T14:46:53;10.70;99.90
12688;DHT22;6408;59.388;17.798;2023-04-25T14:49:20;10.50;99.90
12688;DHT22;6408;59.388;17.798;2023-04-25T14:51:48;10.40;99.90
12688;DHT22;6408;59.388;17.798;2023-04-25T14:54:18;10.40;99.90
12688;DHT22;6408;59.388;17.798;2023-04-25T14:56:46;10.30;99.90
12688;DHT22;6408;59.388;17.798;2023-04-25T14:59:14;10.20;99.90
12688;DHT22;6408;59.388;17.798;2023-04-25T15:01:41;10.20;99.90
12688;DHT22;6408;59.388;17.798;2023-04-25T15:04:09;10.10;99.90
12688;DHT22;6408;59.388;17.798;2023-04-25T15:06:38;10.00;99.90
12688;DHT22;6408;59.388;17.798;2023-04-25T15:09:05;9.90;99.90
12688;DHT22;6408;59.388;17.798;2023-04-25T15:11:35;9.80;99.90
12688;DHT22;6408;59.388;17.798;2023-04-25T15:14:02;9.70;99.90
12688;DHT22;6408;59.388;17.798;2023-04-25T15:16:30;9.70;99.90
12688;DHT22;6408;59.388;17.798;2023-04-25T15:18:58;9.60;99.90
12688;DHT22;6408;59.388;17.798;2023-04-25T15:21:30;9.50;99.90
12688;DHT22;6408;59.388;17.798;2023-04-25T15:23:57;9.40;99.90
12688;DHT22;6408;59.388;17.798;2023-04-25T15:26:26;9.30;99.90
12688;DHT22;6408;59.388;17.798;2023-04-25T15:28:55;9.30;99.90
12688;DHT22;6408;59.388;17.798;2023-04-25T15:31:23;9.30;99.90
12688;DHT22;6408;59.388;17.798;2023-04-25T15:33:51;9.30;99.90
12688;DHT22;6408;59.388;17.798;2023-04-25T15:36:18;9.40;99.90
12688;DHT22;6408;59.388;17.798;2023-04-25T15:38:47;9.40;99.90
12688;DHT22;6408;59.388;17.798;2023-04-25T15:41:14;9.30;99.90
12688;DHT22;6408;59.388;17.798;2023-04-25T15:43:42;9.20;99.90
12688;DHT22;6408;59.388;17.798;2023-04-25T15:46:12;9.10;99.90
12688;DHT22;6408;59.388;17.798;2023-04-25T15:48:40;9.10;99.90
12688;DHT22;6408;59.388;17.798;2023-04-25T15:51:07;9.00;99.90
12688;DHT22;6408;59.388;17.798;2023-04-25T15:53:36;9.00;99.90